sensor_id;sensor_type;location;lat;lon;timestamp;temperature;humidity
59007;DHT22;44792;52.760;6.726;2022-12-29T00:01:25;9.80;99.90
59007;DHT22;44792;52.760;6.726;2022-12-29T00:03:51;9.90;99.90
59007;DHT22;44792;52.760;6.726;2022-12-29T00:06:17;9.90;99.90
59007;DHT22;44792;52.760;6.726;2022-12-29T00:08:43;9.90;99.90
59007;DHT22;44792;52.760;6.726;2022-12-29T00:11:14;9.90;99.90
59007;DHT22;44792;52.760;6.726;2022-12-29T00:13:40;9.90;99.90
59007;DHT22;44792;52.760;6.726;2022-12-29T00:16:25;9.90;99.90
59007;DHT22;44792;52.760;6.726;2022-12-29T00:18:51;10.00;99.90
59007;DHT22;44792;52.760;6.726;2022-12-29T00:21:19;9.90;99.90
59007;DHT22;44792;52.760;6.726;2022-12-29T00:24:05;9.90;99.90
59007;DHT22;44792;52.760;6.726;2022-12-29T00:26:55;9.90;99.90
59007;DHT22;44792;52.760;6.726;2022-12-29T00:29:40;9.90;99.90
59007;DHT22;44792;52.760;6.726;2022-12-29T00:32:25;10.00;99.90
59007;DHT22;44792;52.760;6.726;2022-12-29T00:35:11;10.00;99.90
59007;DHT22;44792;52.760;6.726;2022-12-29T00:37:43;10.00;99.90
59007;DHT22;44792;52.760;6.726;2022-12-29T00:40:30;10.00;99.90
59007;DHT22;44792;52.760;6.726;2022-12-29T00:43:14;9.90;99.90
59007;DHT22;44792;52.760;6.726;2022-12-29T00:45:58;10.00;99.90
59007;DHT22;44792;52.760;6.726;2022-12-29T00:48:24;10.00;99.90
59007;DHT22;44792;52.760;6.726;2022-12-29T00:51:08;10.00;99.90
59007;DHT22;44792;52.760;6.726;2022-12-29T00:53:34;10.00;99.90
59007;DHT22;44792;52.760;6.726;2022-12-29T00:56:00;10.00;99.90
59007;DHT22;44792;52.760;6.726;2022-12-29T00:58:29;10.00;99.90
59007;DHT22;44792;52.760;6.726;2022-12-29T01:01:08;10.10;99.90
59007;DHT22;44792;52.760;6.726;2022-12-29T01:03:35;10.00;99.90
59007;DHT22;44792;52.760;6.726;2022-12-29T01:06:03;10.10;99.90
59007;DHT22;44792;52.760;6.726;2022-12-29T01:08:29;10.10;99.90
59007;DHT22;44792;52.760;6.726;2022-12-29T01:11:06;10.10;99.90
59007;DHT22;44792;52.760;6.726;2022-12-29T01:13:32;10.20;99.90
59007;DHT22;44792;52.760;6.726;2022-12-29T01:15:57;10.20;99.90
59007;DHT22;44792;52.760;6.726;2022-12-29T01:18:24;10.20;99.90
59007;DHT22;44792;52.760;6.726;2022-12-29T01:20:51;10.20;99.90
59007;DHT22;44792;52.760;6.726;2022-12-29T01:23:16;10.20;99.90
59007;DHT22;44792;52.760;6.726;2022-12-29T01:25:42;10.30;99.90
59007;DHT22;44792;52.760;6.726;2022-12-29T01:28:08;10.30;99.90
59007;DHT22;44792;52.760;6.726;2022-12-29T01:30:34;10.30;99.90
59007;DHT22;44792;52.760;6.726;2022-12-29T01:33:00;10.30;99.90
59007;DHT22;44792;52.760;6.726;2022-12-29T01:35:26;10.30;99.90
59007;DHT22;44792;52.760;6.726;2022-12-29T01:37:51;10.30;99.90
59007;DHT22;44792;52.760;6.726;2022-12-29T01:40:17;10.30;99.90
59007;DHT22;44792;52.760;6.726;2022-12-29T01:42:43;10.40;99.90
59007;DHT22;44792;52.760;6.726;2022-12-29T01:45:11;10.40;99.90
59007;DHT22;44792;52.760;6.726;2022-12-29T01:47:54;10.40;99.90
59007;DHT22;44792;52.760;6.726;2022-12-29T01:50:28;10.40;99.90
59007;DHT22;44792;52.760;6.726;2022-12-29T01:56:07;10.40;99.90
59007;DHT22;44792;52.760;6.726;2022-12-29T01:58:39;10.40;99.90
59007;DHT22;44792;52.760;6.726;2022-12-29T02:01:06;10.50;99.90
59007;DHT22;44792;52.760;6.726;2022-12-29T02:03:32;10.50;99.90
59007;DHT22;44792;52.760;6.726;2022-12-29T02:08:32;10.50;99.90
59007;DHT22;44792;52.760;6.726;2022-12-29T02:10:59;10.50;99.90
59007;DHT22;44792;52.760;6.726;2022-12-29T02:13:26;10.50;99.90
59007;DHT22;44792;52.760;6.726;2022-12-29T02:21:43;10.60;99.90
59007;DHT22;44792;52.760;6.726;2022-12-29T02:27:44;10.50;99.90
59007;DHT22;44792;52.760;6.726;2022-12-29T02:35:55;10.50;99.90
59007;DHT22;44792;52.760;6.726;2022-12-29T02:41:07;10.40;99.90
59007;DHT22;44792;52.760;6.726;2022-12-29T02:51:51;10.30;99.90
59007;DHT22;44792;52.760;6.726;2022-12-29T02:54:18;10.20;99.90
59007;DHT22;44792;52.760;6.726;2022-12-29T02:57:04;10.20;99.90
59007;DHT22;44792;52.760;6.726;2022-12-29T02:59:30;10.20;99.90
59007;DHT22;44792;52.760;6.726;2022-12-29T03:02:09;10.20;99.90
59007;DHT22;44792;52.760;6.726;2022-12-29T03:05:05;10.20;99.90
59007;DHT22;44792;52.760;6.726;2022-12-29T03:10:52;10.20;99.90
59007;DHT22;44792;52.760;6.726;2022-12-29T03:13:25;10.20;99.90
59007;DHT22;44792;52.760;6.726;2022-12-29T03:19:04;10.10;99.90
59007;DHT22;44792;52.760;6.726;2022-12-29T03:21:43;10.10;99.90
59007;DHT22;44792;52.760;6.726;2022-12-29T03:24:35;10.10;99.90
59007;DHT22;44792;52.760;6.726;2022-12-29T03:27:04;10.10;99.90
59007;DHT22;44792;52.760;6.726;2022-12-29T03:29:35;10.10;99.90
59007;DHT22;44792;52.760;6.726;2022-12-29T03:32:03;10.10;99.90
59007;DHT22;44792;52.760;6.726;2022-12-29T03:34:30;10.10;99.90
59007;DHT22;44792;52.760;6.726;2022-12-29T03:37:02;10.10;99.90
59007;DHT22;44792;52.760;6.726;2022-12-29T03:39:28;10.10;99.90
59007;DHT22;44792;52.760;6.726;2022-12-29T03:42:02;10.10;99.90
59007;DHT22;44792;52.760;6.726;2022-12-29T03:44:42;10.10;99.90
59007;DHT22;44792;52.760;6.726;2022-12-29T03:47:11;10.10;99.90
59007;DHT22;44792;52.760;6.726;2022-12-29T03:49:37;10.20;99.90
59007;DHT22;44792;52.760;6.726;2022-12-29T03:52:02;10.20;99.90
59007;DHT22;44792;52.760;6.726;2022-12-29T03:54:29;10.20;99.90
59007;DHT22;44792;52.760;6.726;2022-12-29T03:56:54;10.20;99.90
59007;DHT22;44792;52.760;6.726;2022-12-29T03:59:20;10.30;99.90
59007;DHT22;44792;52.760;6.726;2022-12-29T04:01:45;10.30;99.90
59007;DHT22;44792;52.760;6.726;2022-12-29T04:04:12;10.20;99.90
59007;DHT22;44792;52.760;6.726;2022-12-29T04:06:37;10.30;99.90
59007;DHT22;44792;52.760;6.726;2022-12-29T04:09:03;10.30;99.90
59007;DHT22;44792;52.760;6.726;2022-12-29T04:11:28;10.30;99.90
59007;DHT22;44792;52.760;6.726;2022-12-29T04:13:54;10.30;99.90
59007;DHT22;44792;52.760;6.726;2022-12-29T04:16:19;10.40;99.90
59007;DHT22;44792;52.760;6.726;2022-12-29T04:18:45;10.40;99.90
59007;DHT22;44792;52.760;6.726;2022-12-29T04:21:11;10.40;99.90
59007;DHT22;44792;52.760;6.726;2022-12-29T04:23:38;10.40;99.90
59007;DHT22;44792;52.760;6.726;2022-12-29T04:26:05;10.40;99.90
59007;DHT22;44792;52.760;6.726;2022-12-29T04:28:35;10.40;99.90
59007;DHT22;44792;52.760;6.726;2022-12-29T04:31:01;10.40;99.90
59007;DHT22;44792;52.760;6.726;2022-12-29T04:33:27;10.40;99.90
59007;DHT22;44792;52.760;6.726;2022-12-29T04:35:53;10.40;99.90
59007;DHT22;44792;52.760;6.726;2022-12-29T04:38:20;10.30;99.90
59007;DHT22;44792;52.760;6.726;2022-12-29T04:40:45;10.30;99.90
59007;DHT22;44792;52.760;6.726;2022-12-29T04:43:11;10.30;99.90
59007;DHT22;44792;52.760;6.726;2022-12-29T04:45:38;10.30;99.90
59007;DHT22;44792;52.760;6.726;2022-12-29T04:48:04;10.40;99.90
59007;DHT22;44792;52.760;6.726;2022-12-29T04:50:29;10.30;99.90
59007;DHT22;44792;52.760;6.726;2022-12-29T04:52:55;10.30;99.90
59007;DHT22;44792;52.760;6.726;2022-12-29T04:55:21;10.30;99.90
59007;DHT22;44792;52.760;6.726;2022-12-29T04:57:46;10.30;99.90
59007;DHT22;44792;52.760;6.726;2022-12-29T05:00:12;10.30;99.90
59007;DHT22;44792;52.760;6.726;2022-12-29T05:02:38;10.30;99.90
59007;DHT22;44792;52.760;6.726;2022-12-29T05:05:04;10.30;99.90
59007;DHT22;44792;52.760;6.726;2022-12-29T05:07:30;10.30;99.90
59007;DHT22;44792;52.760;6.726;2022-12-29T05:09:58;10.30;99.90
59007;DHT22;44792;52.760;6.726;2022-12-29T05:12:24;10.30;99.90
59007;DHT22;44792;52.760;6.726;2022-12-29T05:14:49;10.30;99.90
59007;DHT22;44792;52.760;6.726;2022-12-29T05:17:15;10.30;99.90
59007;DHT22;44792;52.760;6.726;2022-12-29T05:19:41;10.40;99.90
59007;DHT22;44792;52.760;6.726;2022-12-29T05:22:06;10.40;99.90
59007;DHT22;44792;52.760;6.726;2022-12-29T05:24:32;10.40;99.90
59007;DHT22;44792;52.760;6.726;2022-12-29T05:26:57;10.40;99.90
59007;DHT22;44792;52.760;6.726;2022-12-29T05:29:23;10.30;99.90
59007;DHT22;44792;52.760;6.726;2022-12-29T05:31:48;10.30;99.90
59007;DHT22;44792;52.760;6.726;2022-12-29T05:34:14;10.30;99.90
59007;DHT22;44792;52.760;6.726;2022-12-29T05:36:39;10.30;99.90
59007;DHT22;44792;52.760;6.726;2022-12-29T05:39:05;10.30;99.90
59007;DHT22;44792;52.760;6.726;2022-12-29T05:41:33;10.30;99.90
59007;DHT22;44792;52.760;6.726;2022-12-29T05:43:58;10.30;99.90
59007;DHT22;44792;52.760;6.726;2022-12-29T05:46:24;10.30;99.90
59007;DHT22;44792;52.760;6.726;2022-12-29T05:48:49;10.30;99.90
59007;DHT22;44792;52.760;6.726;2022-12-29T05:51:15;10.30;99.90
59007;DHT22;44792;52.760;6.726;2022-12-29T05:53:40;10.20;99.90
59007;DHT22;44792;52.760;6.726;2022-12-29T05:56:06;10.30;99.90
59007;DHT22;44792;52.760;6.726;2022-12-29T05:58:32;10.20;99.90
59007;DHT22;44792;52.760;6.726;2022-12-29T06:00:58;10.20;99.90
59007;DHT22;44792;52.760;6.726;2022-12-29T06:03:23;10.20;99.90
59007;DHT22;44792;52.760;6.726;2022-12-29T06:05:49;10.20;99.90
59007;DHT22;44792;52.760;6.726;2022-12-29T06:08:15;10.20;99.90
59007;DHT22;44792;52.760;6.726;2022-12-29T06:10:40;10.20;99.90
59007;DHT22;44792;52.760;6.726;2022-12-29T06:13:06;10.20;99.90
59007;DHT22;44792;52.760;6.726;2022-12-29T06:15:32;10.10;99.90
59007;DHT22;44792;52.760;6.726;2022-12-29T06:17:58;10.10;99.90
59007;DHT22;44792;52.760;6.726;2022-12-29T06:20:23;10.10;99.90
59007;DHT22;44792;52.760;6.726;2022-12-29T06:22:49;10.10;99.90
59007;DHT22;44792;52.760;6.726;2022-12-29T06:25:15;10.10;99.90
59007;DHT22;44792;52.760;6.726;2022-12-29T06:27:41;10.10;99.90
59007;DHT22;44792;52.760;6.726;2022-12-29T06:30:07;10.00;99.90
59007;DHT22;44792;52.760;6.726;2022-12-29T06:32:34;10.00;99.90
59007;DHT22;44792;52.760;6.726;2022-12-29T06:35:00;10.00;99.90
59007;DHT22;44792;52.760;6.726;2022-12-29T06:37:26;10.00;99.90
59007;DHT22;44792;52.760;6.726;2022-12-29T06:39:51;10.00;99.90
59007;DHT22;44792;52.760;6.726;2022-12-29T06:42:17;10.00;99.90
59007;DHT22;44792;52.760;6.726;2022-12-29T06:44:42;10.00;99.90
59007;DHT22;44792;52.760;6.726;2022-12-29T06:47:08;10.00;99.90
59007;DHT22;44792;52.760;6.726;2022-12-29T06:49:34;10.10;99.90
59007;DHT22;44792;52.760;6.726;2022-12-29T06:51:59;10.00;99.90
59007;DHT22;44792;52.760;6.726;2022-12-29T06:54:26;10.00;99.90
59007;DHT22;44792;52.760;6.726;2022-12-29T06:56:52;10.00;99.90
59007;DHT22;44792;52.760;6.726;2022-12-29T06:59:17;10.10;99.90
59007;DHT22;44792;52.760;6.726;2022-12-29T07:01:43;10.00;99.90
59007;DHT22;44792;52.760;6.726;2022-12-29T07:04:08;10.00;99.90
59007;DHT22;44792;52.760;6.726;2022-12-29T07:06:34;10.00;99.90
59007;DHT22;44792;52.760;6.726;2022-12-29T07:08:59;10.00;99.90
59007;DHT22;44792;52.760;6.726;2022-12-29T07:11:25;10.00;99.90
59007;DHT22;44792;52.760;6.726;2022-12-29T07:13:51;10.00;99.90
59007;DHT22;44792;52.760;6.726;2022-12-29T07:16:16;10.00;99.90
59007;DHT22;44792;52.760;6.726;2022-12-29T07:18:42;10.00;99.90
59007;DHT22;44792;52.760;6.726;2022-12-29T07:21:08;9.90;99.90
59007;DHT22;44792;52.760;6.726;2022-12-29T07:23:34;9.90;99.90
59007;DHT22;44792;52.760;6.726;2022-12-29T07:26:05;9.90;99.90
59007;DHT22;44792;52.760;6.726;2022-12-29T07:28:31;9.90;99.90
59007;DHT22;44792;52.760;6.726;2022-12-29T07:30:58;9.90;99.90
59007;DHT22;44792;52.760;6.726;2022-12-29T07:33:24;9.90;99.90
59007;DHT22;44792;52.760;6.726;2022-12-29T07:35:50;9.90;99.90
59007;DHT22;44792;52.760;6.726;2022-12-29T07:38:16;9.90;99.90
59007;DHT22;44792;52.760;6.726;2022-12-29T07:40:42;9.80;99.90
59007;DHT22;44792;52.760;6.726;2022-12-29T07:43:08;9.80;99.90
59007;DHT22;44792;52.760;6.726;2022-12-29T07:45:33;9.80;99.90
59007;DHT22;44792;52.760;6.726;2022-12-29T07:47:59;9.90;99.90
59007;DHT22;44792;52.760;6.726;2022-12-29T07:50:24;9.80;99.90
59007;DHT22;44792;52.760;6.726;2022-12-29T07:52:50;9.90;99.90
59007;DHT22;44792;52.760;6.726;2022-12-29T07:55:16;9.90;99.90
59007;DHT22;44792;52.760;6.726;2022-12-29T07:57:42;9.90;99.90
59007;DHT22;44792;52.760;6.726;2022-12-29T08:00:08;9.90;99.90
59007;DHT22;44792;52.760;6.726;2022-12-29T08:02:35;9.90;99.90
59007;DHT22;44792;52.760;6.726;2022-12-29T08:05:01;9.90;99.90
59007;DHT22;44792;52.760;6.726;2022-12-29T08:07:26;9.80;99.90
59007;DHT22;44792;52.760;6.726;2022-12-29T08:09:52;9.80;99.90
59007;DHT22;44792;52.760;6.726;2022-12-29T08:12:18;9.90;99.90
59007;DHT22;44792;52.760;6.726;2022-12-29T08:14:44;9.80;99.90
59007;DHT22;44792;52.760;6.726;2022-12-29T08:17:09;9.90;99.90
59007;DHT22;44792;52.760;6.726;2022-12-29T08:19:35;9.80;99.90
59007;DHT22;44792;52.760;6.726;2022-12-29T08:22:01;9.80;99.90
59007;DHT22;44792;52.760;6.726;2022-12-29T08:24:27;9.80;99.90
59007;DHT22;44792;52.760;6.726;2022-12-29T08:26:52;9.80;99.90
59007;DHT22;44792;52.760;6.726;2022-12-29T08:29:18;9.80;99.90
59007;DHT22;44792;52.760;6.726;2022-12-29T08:31:44;9.80;99.90
59007;DHT22;44792;52.760;6.726;2022-12-29T08:34:10;9.80;99.90
59007;DHT22;44792;52.760;6.726;2022-12-29T08:36:36;9.80;99.90
59007;DHT22;44792;52.760;6.726;2022-12-29T08:39:01;9.80;99.90
59007;DHT22;44792;52.760;6.726;2022-12-29T08:41:27;9.80;99.90
59007;DHT22;44792;52.760;6.726;2022-12-29T08:43:53;9.80;99.90
59007;DHT22;44792;52.760;6.726;2022-12-29T08:46:18;9.80;99.90
59007;DHT22;44792;52.760;6.726;2022-12-29T08:48:44;9.80;99.90
59007;DHT22;44792;52.760;6.726;2022-12-29T08:51:10;9.80;99.90
59007;DHT22;44792;52.760;6.726;2022-12-29T08:53:36;9.80;99.90
59007;DHT22;44792;52.760;6.726;2022-12-29T08:56:02;9.80;99.90
59007;DHT22;44792;52.760;6.726;2022-12-29T08:58:28;9.80;99.90
59007;DHT22;44792;52.760;6.726;2022-12-29T09:00:54;9.70;99.90
59007;DHT22;44792;52.760;6.726;2022-12-29T09:03:21;9.70;99.90
59007;DHT22;44792;52.760;6.726;2022-12-29T09:05:51;9.70;99.90
59007;DHT22;44792;52.760;6.726;2022-12-29T09:08:17;9.70;99.90
59007;DHT22;44792;52.760;6.726;2022-12-29T09:10:43;9.70;99.90
59007;DHT22;44792;52.760;6.726;2022-12-29T09:13:10;9.70;99.90
59007;DHT22;44792;52.760;6.726;2022-12-29T09:15:35;9.70;99.90
59007;DHT22;44792;52.760;6.726;2022-12-29T09:18:01;9.70;99.90
59007;DHT22;44792;52.760;6.726;2022-12-29T09:20:26;9.70;99.90
59007;DHT22;44792;52.760;6.726;2022-12-29T09:22:52;9.70;99.90
59007;DHT22;44792;52.760;6.726;2022-12-29T09:25:17;9.60;99.90
59007;DHT22;44792;52.760;6.726;2022-12-29T09:27:43;9.60;99.90
59007;DHT22;44792;52.760;6.726;2022-12-29T09:30:11;9.60;99.90
59007;DHT22;44792;52.760;6.726;2022-12-29T09:32:37;9.60;99.90
59007;DHT22;44792;52.760;6.726;2022-12-29T09:35:03;9.50;99.90
59007;DHT22;44792;52.760;6.726;2022-12-29T09:37:29;9.60;99.90
59007;DHT22;44792;52.760;6.726;2022-12-29T09:39:54;9.60;99.90
59007;DHT22;44792;52.760;6.726;2022-12-29T09:42:27;9.60;99.90
59007;DHT22;44792;52.760;6.726;2022-12-29T09:45:06;9.60;99.90
59007;DHT22;44792;52.760;6.726;2022-12-29T09:47:36;9.60;99.90
59007;DHT22;44792;52.760;6.726;2022-12-29T09:52:37;9.60;99.90
59007;DHT22;44792;52.760;6.726;2022-12-29T09:55:10;9.60;99.90
59007;DHT22;44792;52.760;6.726;2022-12-29T09:57:48;9.60;99.90
59007;DHT22;44792;52.760;6.726;2022-12-29T10:00:17;9.60;99.90
59007;DHT22;44792;52.760;6.726;2022-12-29T10:02:48;9.60;99.90
59007;DHT22;44792;52.760;6.726;2022-12-29T10:10:53;9.70;99.90
59007;DHT22;44792;52.760;6.726;2022-12-29T10:13:33;9.80;99.90
59007;DHT22;44792;52.760;6.726;2022-12-29T10:16:17;9.70;99.90
59007;DHT22;44792;52.760;6.726;2022-12-29T10:19:02;9.80;99.90
59007;DHT22;44792;52.760;6.726;2022-12-29T10:24:17;9.80;99.90
59007;DHT22;44792;52.760;6.726;2022-12-29T10:26:45;9.80;99.90
59007;DHT22;44792;52.760;6.726;2022-12-29T10:32:00;9.80;99.90
59007;DHT22;44792;52.760;6.726;2022-12-29T10:37:41;9.70;99.90
59007;DHT22;44792;52.760;6.726;2022-12-29T10:39:54;9.90;99.90
59007;DHT22;44792;52.760;6.726;2022-12-29T10:42:27;9.80;99.90
59007;DHT22;44792;52.760;6.726;2022-12-29T10:44:56;9.90;99.90
59007;DHT22;44792;52.760;6.726;2022-12-29T10:47:25;9.80;99.90
59007;DHT22;44792;52.760;6.726;2022-12-29T10:49:51;9.80;99.90
59007;DHT22;44792;52.760;6.726;2022-12-29T10:52:19;9.70;99.90
59007;DHT22;44792;52.760;6.726;2022-12-29T10:54:58;9.70;99.90
59007;DHT22;44792;52.760;6.726;2022-12-29T10:59:57;9.70;99.90
59007;DHT22;44792;52.760;6.726;2022-12-29T11:02:40;9.60;99.90
59007;DHT22;44792;52.760;6.726;2022-12-29T11:05:29;9.60;99.90
59007;DHT22;44792;52.760;6.726;2022-12-29T11:08:02;9.60;99.90
59007;DHT22;44792;52.760;6.726;2022-12-29T11:10:30;9.70;99.90
59007;DHT22;44792;52.760;6.726;2022-12-29T11:13:10;9.60;99.90
59007;DHT22;44792;52.760;6.726;2022-12-29T11:15:46;9.60;99.90
59007;DHT22;44792;52.760;6.726;2022-12-29T11:20:46;9.60;99.90
59007;DHT22;44792;52.760;6.726;2022-12-29T11:23:35;9.60;99.90
59007;DHT22;44792;52.760;6.726;2022-12-29T11:26:21;9.50;99.90
59007;DHT22;44792;52.760;6.726;2022-12-29T11:29:23;9.50;99.90
59007;DHT22;44792;52.760;6.726;2022-12-29T11:31:57;9.60;99.90
59007;DHT22;44792;52.760;6.726;2022-12-29T11:34:35;9.60;99.90
59007;DHT22;44792;52.760;6.726;2022-12-29T11:37:04;9.60;99.90
59007;DHT22;44792;52.760;6.726;2022-12-29T11:39:55;9.60;99.90
59007;DHT22;44792;52.760;6.726;2022-12-29T11:42:48;9.60;99.90
59007;DHT22;44792;52.760;6.726;2022-12-29T11:45:19;9.60;99.90
59007;DHT22;44792;52.760;6.726;2022-12-29T11:47:47;9.60;99.90
59007;DHT22;44792;52.760;6.726;2022-12-29T11:50:20;9.50;99.90
59007;DHT22;44792;52.760;6.726;2022-12-29T11:52:48;9.60;99.90
59007;DHT22;44792;52.760;6.726;2022-12-29T11:55:21;9.60;99.90
59007;DHT22;44792;52.760;6.726;2022-12-29T11:57:47;9.60;99.90
59007;DHT22;44792;52.760;6.726;2022-12-29T12:00:18;9.60;99.90
59007;DHT22;44792;52.760;6.726;2022-12-29T12:02:45;9.60;99.90
59007;DHT22;44792;52.760;6.726;2022-12-29T12:05:23;9.70;99.90
59007;DHT22;44792;52.760;6.726;2022-12-29T12:08:14;9.70;99.90
59007;DHT22;44792;52.760;6.726;2022-12-29T12:11:04;9.70;99.90
59007;DHT22;44792;52.760;6.726;2022-12-29T12:16:15;9.80;99.90
59007;DHT22;44792;52.760;6.726;2022-12-29T12:18:48;9.80;99.90
59007;DHT22;44792;52.760;6.726;2022-12-29T12:21:32;9.90;99.90
59007;DHT22;44792;52.760;6.726;2022-12-29T12:24:22;10.00;99.90
59007;DHT22;44792;52.760;6.726;2022-12-29T12:27:14;10.10;99.90
59007;DHT22;44792;52.760;6.726;2022-12-29T12:30:02;10.10;99.90
59007;DHT22;44792;52.760;6.726;2022-12-29T12:32:44;10.00;99.90
59007;DHT22;44792;52.760;6.726;2022-12-29T12:35:20;10.00;99.90
59007;DHT22;44792;52.760;6.726;2022-12-29T12:48:34;9.60;99.90
59007;DHT22;44792;52.760;6.726;2022-12-29T12:53:53;9.60;99.90
59007;DHT22;44792;52.760;6.726;2022-12-29T13:01:48;9.60;99.90
59007;DHT22;44792;52.760;6.726;2022-12-29T13:07:24;9.70;99.90
59007;DHT22;44792;52.760;6.726;2022-12-29T13:10:01;9.70;99.90
59007;DHT22;44792;52.760;6.726;2022-12-29T13:12:47;9.70;99.90
59007;DHT22;44792;52.760;6.726;2022-12-29T13:17:55;9.80;99.90
59007;DHT22;44792;52.760;6.726;2022-12-29T13:26:01;9.80;99.90
59007;DHT22;44792;52.760;6.726;2022-12-29T13:31:25;9.80;99.90
59007;DHT22;44792;52.760;6.726;2022-12-29T13:34:14;9.80;99.90
59007;DHT22;44792;52.760;6.726;2022-12-29T13:36:52;9.70;99.90
59007;DHT22;44792;52.760;6.726;2022-12-29T13:39:38;9.70;99.90
59007;DHT22;44792;52.760;6.726;2022-12-29T13:42:07;9.70;99.90
59007;DHT22;44792;52.760;6.726;2022-12-29T13:44:41;9.70;99.90
59007;DHT22;44792;52.760;6.726;2022-12-29T13:47:47;9.70;99.90
59007;DHT22;44792;52.760;6.726;2022-12-29T13:50:22;9.70;99.90
59007;DHT22;44792;52.760;6.726;2022-12-29T13:58:37;9.60;99.90
59007;DHT22;44792;52.760;6.726;2022-12-29T14:03:59;9.70;99.90
59007;DHT22;44792;52.760;6.726;2022-12-29T14:06:33;9.70;99.90
59007;DHT22;44792;52.760;6.726;2022-12-29T14:09:01;9.70;99.90
59007;DHT22;44792;52.760;6.726;2022-12-29T14:11:37;9.70;99.90
59007;DHT22;44792;52.760;6.726;2022-12-29T14:14:22;9.70;99.90
59007;DHT22;44792;52.760;6.726;2022-12-29T14:16:48;9.80;99.90
59007;DHT22;44792;52.760;6.726;2022-12-29T14:19:19;9.70;99.90
59007;DHT22;44792;52.760;6.726;2022-12-29T14:21:55;9.70;99.90
59007;DHT22;44792;52.760;6.726;2022-12-29T14:34:47;9.70;99.90
59007;DHT22;44792;52.760;6.726;2022-12-29T14:37:25;9.80;99.90
59007;DHT22;44792;52.760;6.726;2022-12-29T14:42:43;9.70;99.90
59007;DHT22;44792;52.760;6.726;2022-12-29T14:47:46;9.70;99.90
59007;DHT22;44792;52.760;6.726;2022-12-29T14:50:18;9.70;99.90
59007;DHT22;44792;52.760;6.726;2022-12-29T14:52:56;9.70;99.90
59007;DHT22;44792;52.760;6.726;2022-12-29T14:55:44;9.70;99.90
59007;DHT22;44792;52.760;6.726;2022-12-29T14:58:29;9.70;99.90
59007;DHT22;44792;52.760;6.726;2022-12-29T15:00:56;9.70;99.90
59007;DHT22;44792;52.760;6.726;2022-12-29T15:03:31;9.70;99.90
59007;DHT22;44792;52.760;6.726;2022-12-29T15:06:04;9.70;99.90
59007;DHT22;44792;52.760;6.726;2022-12-29T15:08:35;9.70;99.90
59007;DHT22;44792;52.760;6.726;2022-12-29T15:11:12;9.60;99.90
59007;DHT22;44792;52.760;6.726;2022-12-29T15:13:41;9.70;99.90
59007;DHT22;44792;52.760;6.726;2022-12-29T15:16:26;9.60;99.90
59007;DHT22;44792;52.760;6.726;2022-12-29T15:18:55;9.60;99.90
59007;DHT22;44792;52.760;6.726;2022-12-29T15:21:28;9.60;99.90
59007;DHT22;44792;52.760;6.726;2022-12-29T15:23:54;9.60;99.90
59007;DHT22;44792;52.760;6.726;2022-12-29T15:26:21;9.60;99.90
59007;DHT22;44792;52.760;6.726;2022-12-29T15:28:50;9.60;99.90
59007;DHT22;44792;52.760;6.726;2022-12-29T15:31:23;9.60;99.90
59007;DHT22;44792;52.760;6.726;2022-12-29T15:33:54;9.60;99.90
59007;DHT22;44792;52.760;6.726;2022-12-29T15:36:26;9.60;99.90
59007;DHT22;44792;52.760;6.726;2022-12-29T15:38:52;9.60;99.90
59007;DHT22;44792;52.760;6.726;2022-12-29T15:41:35;9.50;99.90
59007;DHT22;44792;52.760;6.726;2022-12-29T15:44:31;9.60;99.90
59007;DHT22;44792;52.760;6.726;2022-12-29T15:47:01;9.50;99.90
59007;DHT22;44792;52.760;6.726;2022-12-29T15:49:27;9.50;99.90
59007;DHT22;44792;52.760;6.726;2022-12-29T15:51:53;9.40;99.90
59007;DHT22;44792;52.760;6.726;2022-12-29T15:54:21;9.40;99.90
59007;DHT22;44792;52.760;6.726;2022-12-29T15:56:48;9.30;99.90
59007;DHT22;44792;52.760;6.726;2022-12-29T15:59:29;9.40;99.90
59007;DHT22;44792;52.760;6.726;2022-12-29T16:01:56;9.30;99.90
59007;DHT22;44792;52.760;6.726;2022-12-29T16:04:22;9.30;99.90
59007;DHT22;44792;52.760;6.726;2022-12-29T16:07:00;9.20;99.90
59007;DHT22;44792;52.760;6.726;2022-12-29T16:09:41;9.30;99.90
59007;DHT22;44792;52.760;6.726;2022-12-29T16:12:17;9.20;99.90
59007;DHT22;44792;52.760;6.726;2022-12-29T16:14:56;9.30;99.90
59007;DHT22;44792;52.760;6.726;2022-12-29T16:17:25;9.20;99.90
59007;DHT22;44792;52.760;6.726;2022-12-29T16:20:01;9.20;99.90
59007;DHT22;44792;52.760;6.726;2022-12-29T16:22:33;9.20;99.90
59007;DHT22;44792;52.760;6.726;2022-12-29T16:25:02;9.10;99.90
59007;DHT22;44792;52.760;6.726;2022-12-29T16:27:36;9.10;99.90
59007;DHT22;44792;52.760;6.726;2022-12-29T16:30:06;9.10;99.90
59007;DHT22;44792;52.760;6.726;2022-12-29T16:32:32;9.00;99.90
59007;DHT22;44792;52.760;6.726;2022-12-29T16:35:25;9.00;99.90
59007;DHT22;44792;52.760;6.726;2022-12-29T16:38:18;9.00;99.90
59007;DHT22;44792;52.760;6.726;2022-12-29T16:41:03;9.00;99.90
59007;DHT22;44792;52.760;6.726;2022-12-29T16:43:31;9.10;99.90
59007;DHT22;44792;52.760;6.726;2022-12-29T16:48:48;9.10;99.90
59007;DHT22;44792;52.760;6.726;2022-12-29T16:51:18;9.10;99.90
59007;DHT22;44792;52.760;6.726;2022-12-29T16:53:52;9.10;99.90
59007;DHT22;44792;52.760;6.726;2022-12-29T16:56:21;9.00;99.90
59007;DHT22;44792;52.760;6.726;2022-12-29T16:58:51;9.10;99.90
59007;DHT22;44792;52.760;6.726;2022-12-29T17:01:20;9.00;99.90
59007;DHT22;44792;52.760;6.726;2022-12-29T17:03:54;9.00;99.90
59007;DHT22;44792;52.760;6.726;2022-12-29T17:06:22;9.00;99.90
59007;DHT22;44792;52.760;6.726;2022-12-29T17:08:49;9.00;99.90
59007;DHT22;44792;52.760;6.726;2022-12-29T17:11:26;8.90;99.90
59007;DHT22;44792;52.760;6.726;2022-12-29T17:16:47;8.90;99.90
59007;DHT22;44792;52.760;6.726;2022-12-29T17:19:17;8.90;99.90
59007;DHT22;44792;52.760;6.726;2022-12-29T17:21:43;8.90;99.90
59007;DHT22;44792;52.760;6.726;2022-12-29T17:24:16;8.90;99.90
59007;DHT22;44792;52.760;6.726;2022-12-29T17:26:47;8.90;99.90
59007;DHT22;44792;52.760;6.726;2022-12-29T17:29:39;8.90;99.90
59007;DHT22;44792;52.760;6.726;2022-12-29T17:32:09;8.90;99.90
59007;DHT22;44792;52.760;6.726;2022-12-29T17:34:35;8.90;99.90
59007;DHT22;44792;52.760;6.726;2022-12-29T17:37:01;8.90;99.90
59007;DHT22;44792;52.760;6.726;2022-12-29T17:39:26;9.00;99.90
59007;DHT22;44792;52.760;6.726;2022-12-29T17:41:52;8.90;99.90
59007;DHT22;44792;52.760;6.726;2022-12-29T17:44:19;8.90;99.90
59007;DHT22;44792;52.760;6.726;2022-12-29T17:46:46;8.90;99.90
59007;DHT22;44792;52.760;6.726;2022-12-29T17:49:14;8.90;99.90
59007;DHT22;44792;52.760;6.726;2022-12-29T17:51:44;8.90;99.90
59007;DHT22;44792;52.760;6.726;2022-12-29T17:54:23;8.90;99.90
59007;DHT22;44792;52.760;6.726;2022-12-29T17:56:50;8.90;99.90
59007;DHT22;44792;52.760;6.726;2022-12-29T17:59:16;8.90;99.90
59007;DHT22;44792;52.760;6.726;2022-12-29T18:01:43;8.90;99.90
59007;DHT22;44792;52.760;6.726;2022-12-29T18:04:14;8.90;99.90
59007;DHT22;44792;52.760;6.726;2022-12-29T18:06:41;8.80;99.90